createdAt,value
2022-11-24T00:01:12.211Z,2.35
2022-11-24T00:03:39.409Z,1.73
2022-11-24T00:06:09.289Z,1.70
2022-11-24T00:08:37.678Z,1.38
2022-11-24T00:11:07.453Z,1.75
2022-11-24T00:13:35.247Z,2.05
2022-11-24T00:16:27.399Z,1.60
2022-11-24T00:18:56.378Z,2.90
2022-11-24T00:21:24.902Z,1.67
2022-11-24T00:23:52.974Z,2.08
2022-11-24T00:26:25.033Z,1.60
2022-11-24T00:28:53.727Z,1.15
2022-11-24T00:31:35.488Z,1.00
2022-11-24T00:34:05.327Z,1.20
2022-11-24T00:36:34.274Z,1.38
2022-11-24T00:39:04.219Z,1.55
2022-11-24T00:41:31.534Z,1.17
2022-11-24T00:43:59.412Z,1.00
2022-11-24T00:46:27.594Z,1.60
2022-11-24T00:48:55.094Z,1.55
2022-11-24T00:51:30.406Z,1.50
2022-11-24T00:53:58.717Z,1.88
2022-11-24T00:56:26.834Z,1.30
2022-11-24T00:58:54.059Z,1.88
2022-11-24T01:01:26.348Z,1.95
2022-11-24T01:03:55.450Z,1.70
2022-11-24T01:06:25.160Z,1.40
2022-11-24T01:08:52.834Z,1.43
2022-11-24T01:11:25.761Z,1.83
2022-11-24T01:13:55.528Z,1.65
2022-11-24T01:16:29.946Z,1.30
2022-11-24T01:18:57.363Z,1.40
2022-11-24T01:21:24.709Z,1.53
2022-11-24T01:23:51.683Z,1.70
2022-11-24T01:26:22.950Z,1.58
2022-11-24T01:28:54.131Z,1.30
2022-11-24T01:31:21.228Z,1.90
2022-11-24T01:33:48.256Z,2.20
2022-11-24T01:36:15.165Z,1.42
2022-11-24T01:38:42.137Z,1.58
2022-11-24T01:41:18.431Z,1.60
2022-11-24T01:43:46.312Z,1.60
2022-11-24T01:46:28.346Z,1.73
2022-11-24T01:49:21.067Z,1.00
2022-11-24T01:52:17.062Z,1.80
2022-11-24T01:54:51.949Z,1.70
2022-11-24T01:57:25.245Z,1.40
2022-11-24T01:59:57.468Z,2.10
2022-11-24T02:02:26.330Z,1.23
2022-11-24T02:04:53.874Z,1.85
2022-11-24T02:07:21.097Z,2.05
2022-11-24T02:10:02.034Z,1.23
2022-11-24T02:12:29.134Z,1.33
2022-11-24T02:14:56.898Z,1.42
2022-11-24T02:17:23.898Z,0.95
2022-11-24T02:20:00.664Z,1.40
2022-11-24T02:22:27.604Z,0.95
2022-11-24T02:25:24.125Z,1.17
2022-11-24T02:27:54.063Z,1.00
2022-11-24T02:30:21.470Z,1.10
2022-11-24T02:32:48.389Z,1.42
2022-11-24T02:35:17.354Z,1.85
2022-11-24T02:37:44.335Z,1.23
2022-11-24T02:40:11.645Z,1.30
2022-11-24T02:42:44.529Z,0.85
2022-11-24T02:45:12.502Z,0.90
2022-11-24T02:47:39.371Z,0.77
2022-11-24T02:50:07.097Z,0.63
2022-11-24T02:52:34.237Z,0.90
2022-11-24T02:55:01.169Z,0.68
2022-11-24T02:57:28.157Z,0.82
2022-11-24T02:59:55.092Z,0.73
2022-11-24T03:02:24.741Z,0.97
2022-11-24T03:04:51.704Z,0.88
2022-11-24T03:07:18.805Z,1.25
2022-11-24T03:09:45.915Z,0.90
2022-11-24T03:12:12.807Z,1.00
2022-11-24T03:14:39.672Z,1.00
2022-11-24T03:17:07.229Z,1.05
2022-11-24T03:19:34.225Z,1.15
2022-11-24T03:22:01.212Z,0.70
2022-11-24T03:24:28.216Z,1.27
2022-11-24T03:26:55.123Z,1.03
2022-11-24T03:29:23.084Z,1.80
2022-11-24T03:31:51.250Z,0.90
2022-11-24T03:34:18.298Z,0.90
2022-11-24T03:36:45.150Z,1.00
2022-11-24T03:39:12.227Z,0.97
2022-11-24T03:41:39.099Z,0.80
2022-11-24T03:44:06.090Z,1.00
2022-11-24T03:46:33.529Z,1.77
2022-11-24T03:49:00.561Z,1.60
2022-11-24T03:51:27.515Z,1.13
2022-11-24T03:53:54.487Z,1.00
2022-11-24T03:56:21.420Z,1.75
2022-11-24T03:58:48.335Z,1.10
2022-11-24T04:01:15.328Z,1.42
2022-11-24T04:03:42.292Z,1.20
2022-11-24T04:06:09.264Z,1.02
2022-11-24T04:08:36.176Z,1.00
2022-11-24T04:11:03.136Z,1.48
2022-11-24T04:13:30.128Z,1.55
2022-11-24T04:15:56.988Z,1.47
2022-11-24T04:18:23.908Z,1.15
2022-11-24T04:20:52.040Z,1.30
2022-11-24T04:23:19.510Z,0.93
2022-11-24T04:25:46.265Z,1.13
2022-11-24T04:28:13.097Z,1.43
2022-11-24T04:30:44.828Z,0.95
2022-11-24T04:33:12.493Z,0.63
2022-11-24T04:35:39.278Z,1.17
2022-11-24T04:38:06.148Z,0.95
2022-11-24T04:40:33.051Z,1.53
2022-11-24T04:42:59.824Z,1.15
2022-11-24T04:45:26.588Z,1.08
2022-11-24T04:47:53.413Z,1.33
2022-11-24T04:50:20.942Z,1.20
2022-11-24T04:52:47.898Z,0.70
2022-11-24T04:55:14.663Z,1.30
2022-11-24T04:57:41.536Z,1.50
2022-11-24T05:00:09.270Z,1.40
2022-11-24T05:02:38.932Z,1.65
2022-11-24T05:05:06.672Z,1.30
2022-11-24T05:07:33.573Z,1.25
2022-11-24T05:10:18.889Z,1.77
2022-11-24T05:12:51.029Z,2.55
2022-11-24T05:15:18.217Z,1.45
2022-11-24T05:17:45.124Z,1.23
2022-11-24T05:20:11.996Z,1.40
2022-11-24T05:22:38.801Z,1.10
2022-11-24T05:25:05.942Z,0.70
2022-11-24T05:27:32.765Z,1.08
2022-11-24T05:29:59.542Z,0.40
2022-11-24T05:32:26.471Z,0.70
2022-11-24T05:34:54.707Z,0.70
2022-11-24T05:37:21.942Z,0.82
2022-11-24T05:39:48.755Z,0.88
2022-11-24T05:42:34.019Z,0.80
2022-11-24T05:45:00.913Z,1.02
2022-11-24T05:47:27.718Z,0.32
2022-11-24T05:49:54.599Z,0.65
2022-11-24T05:52:21.662Z,0.63
2022-11-24T05:54:48.562Z,0.87
2022-11-24T05:57:17.268Z,0.40
2022-11-24T05:59:44.324Z,0.50
2022-11-24T06:02:11.466Z,0.40
2022-11-24T06:04:38.622Z,0.60
2022-11-24T06:07:09.089Z,0.70
2022-11-24T06:09:38.049Z,0.50
2022-11-24T06:12:07.336Z,0.63
2022-11-24T06:14:34.873Z,0.82
2022-11-24T06:17:02.360Z,1.10
2022-11-24T06:19:29.456Z,0.53
2022-11-24T06:21:56.442Z,0.60
2022-11-24T06:24:23.624Z,0.60
2022-11-24T06:26:50.447Z,0.70
2022-11-24T06:29:17.297Z,0.68
2022-11-24T06:31:44.237Z,0.40
2022-11-24T06:34:12.885Z,0.55
2022-11-24T06:36:40.186Z,0.55
2022-11-24T06:39:07.580Z,0.50
2022-11-24T06:41:34.540Z,0.73
2022-11-24T06:44:03.983Z,0.50
2022-11-24T06:46:30.998Z,0.70
2022-11-24T06:48:59.825Z,0.77
2022-11-24T06:51:27.400Z,0.70
2022-11-24T06:53:54.573Z,0.90
2022-11-24T06:56:21.961Z,1.03
2022-11-24T06:58:50.923Z,1.60
2022-11-24T07:01:19.880Z,1.60
2022-11-24T07:03:48.255Z,1.60
2022-11-24T07:06:16.082Z,1.90
2022-11-24T07:08:43.027Z,2.50
2022-11-24T07:11:13.489Z,2.70
2022-11-24T07:13:40.384Z,2.58
2022-11-24T07:16:19.490Z,2.35
2022-11-24T07:18:48.258Z,2.80
2022-11-24T07:21:15.838Z,3.27
2022-11-24T07:23:42.696Z,3.30
2022-11-24T07:26:10.763Z,3.60
2022-11-24T07:28:38.115Z,3.53
2022-11-24T07:31:13.654Z,3.70
2022-11-24T07:33:41.174Z,3.60
2022-11-24T07:36:09.359Z,4.00
2022-11-24T07:38:36.579Z,3.45
2022-11-24T07:41:06.484Z,3.53
2022-11-24T07:43:35.407Z,3.50
2022-11-24T07:46:03.340Z,3.80
2022-11-24T07:48:30.282Z,3.80
2022-11-24T07:50:59.709Z,3.60
2022-11-24T07:53:26.906Z,3.50
2022-11-24T07:56:01.996Z,3.10
2022-11-24T07:58:32.907Z,3.77
2022-11-24T08:01:00.823Z,3.22
2022-11-24T08:03:28.022Z,3.10
2022-11-24T08:08:46.543Z,3.08
2022-11-24T08:11:17.091Z,3.80
2022-11-24T08:13:44.238Z,3.42
2022-11-24T08:16:13.753Z,2.65
2022-11-24T08:18:41.427Z,2.83
2022-11-24T08:21:13.086Z,3.13
2022-11-24T08:23:40.440Z,3.10
2022-11-24T08:26:09.339Z,2.78
2022-11-24T08:28:38.154Z,3.42
2022-11-24T08:31:07.735Z,3.00
2022-11-24T08:33:35.001Z,3.20
2022-11-24T08:36:09.546Z,2.90
2022-11-24T08:38:36.983Z,3.22
2022-11-24T08:41:07.183Z,3.13
2022-11-24T08:43:34.158Z,3.40
2022-11-24T08:46:06.926Z,3.70
2022-11-24T08:48:34.263Z,3.40
2022-11-24T08:51:11.819Z,2.80
2022-11-24T08:53:39.818Z,3.17
2022-11-24T08:56:07.805Z,2.72
2022-11-24T08:58:35.391Z,2.88
2022-11-24T09:01:07.359Z,2.57
2022-11-24T09:03:34.815Z,2.88
2022-11-24T09:06:02.536Z,2.45
2022-11-24T09:08:30.748Z,2.90
2022-11-24T09:11:09.960Z,2.92
2022-11-24T09:13:38.176Z,2.70
2022-11-24T09:16:10.332Z,2.45
2022-11-24T09:18:37.838Z,2.58
2022-11-24T09:21:20.087Z,1.90
2022-11-24T09:23:49.258Z,2.30
2022-11-24T09:26:21.455Z,2.33
2022-11-24T09:28:49.386Z,2.22
2022-11-24T09:31:18.128Z,1.70
2022-11-24T09:33:47.119Z,1.95
2022-11-24T09:36:14.821Z,2.00
2022-11-24T09:38:42.027Z,2.20
2022-11-24T09:41:22.311Z,1.88
2022-11-24T09:43:56.587Z,1.67
2022-11-24T09:46:28.663Z,1.88
2022-11-24T09:48:58.027Z,1.73
2022-11-24T09:51:31.672Z,2.17
2022-11-24T09:54:06.041Z,1.60
2022-11-24T09:56:35.774Z,1.15
2022-11-24T09:59:10.776Z,1.50
2022-11-24T10:01:42.068Z,2.95
2022-11-24T10:04:25.347Z,1.57
2022-11-24T10:07:09.679Z,1.40
2022-11-24T10:09:51.893Z,1.42
2022-11-24T10:12:36.852Z,1.15
2022-11-24T10:15:15.754Z,1.83
2022-11-24T10:17:54.697Z,1.67
2022-11-24T10:21:03.155Z,1.25
2022-11-24T10:24:02.125Z,1.90
2022-11-24T10:26:37.436Z,1.38
2022-11-24T10:29:31.061Z,1.13
2022-11-24T10:31:58.188Z,1.17
2022-11-24T10:34:32.797Z,1.00
2022-11-24T10:37:14.309Z,0.85
2022-11-24T10:39:44.109Z,1.42
2022-11-24T10:42:15.810Z,1.30
2022-11-24T10:44:43.288Z,1.10
2022-11-24T10:47:19.499Z,1.98
2022-11-24T10:50:36.463Z,1.30
2022-11-24T10:53:25.913Z,1.50
2022-11-24T10:55:56.003Z,1.42
2022-11-24T10:58:36.078Z,1.50
2022-11-24T11:01:13.477Z,0.93
2022-11-24T11:03:48.100Z,1.40
2022-11-24T11:06:29.726Z,1.45
2022-11-24T11:09:10.794Z,1.70
2022-11-24T11:11:40.181Z,0.97
2022-11-24T11:14:10.266Z,1.65
2022-11-24T11:16:54.818Z,1.60
2022-11-24T11:19:49.819Z,1.58
2022-11-24T11:22:35.322Z,1.70
2022-11-24T11:25:18.281Z,1.03
2022-11-24T11:27:45.624Z,1.50
2022-11-24T11:36:14.405Z,1.13
2022-11-24T11:38:46.221Z,1.60
2022-11-24T11:41:24.512Z,1.58
2022-11-24T11:44:05.114Z,1.23
2022-11-24T11:46:34.037Z,1.73
2022-11-24T11:49:01.373Z,1.42
2022-11-24T11:51:52.566Z,1.53
2022-11-24T11:54:25.698Z,1.33
2022-11-24T11:57:15.929Z,1.33
2022-11-24T11:59:45.766Z,1.17
2022-11-24T12:02:34.605Z,1.92
2022-11-24T12:05:27.654Z,1.40
2022-11-24T12:08:23.647Z,1.30
2022-11-24T12:11:01.897Z,1.52
2022-11-24T12:13:56.501Z,1.17
2022-11-24T12:16:55.760Z,1.63
2022-11-24T12:19:31.543Z,1.13
2022-11-24T12:22:20.479Z,1.48
2022-11-24T12:25:00.776Z,1.50
2022-11-24T12:27:47.512Z,1.30
2022-11-24T12:30:19.777Z,1.20
2022-11-24T12:33:31.573Z,1.23
2022-11-24T12:36:10.916Z,1.33
2022-11-24T12:38:44.364Z,1.20
2022-11-24T12:41:42.950Z,1.23
2022-11-24T12:44:22.202Z,1.30
2022-11-24T12:47:24.346Z,1.20
2022-11-24T12:50:12.102Z,1.67
2022-11-24T12:52:54.112Z,0.88
2022-11-24T12:55:25.671Z,1.50
2022-11-24T12:58:18.383Z,1.50
2022-11-24T13:01:22.756Z,1.30
2022-11-24T13:04:07.805Z,1.05
2022-11-24T13:07:00.118Z,1.70
2022-11-24T13:09:26.946Z,1.33
2022-11-24T13:12:08.476Z,1.10
2022-11-24T13:14:38.212Z,1.20
2022-11-24T13:17:38.338Z,1.20
2022-11-24T13:20:33.517Z,2.00
2022-11-24T13:23:05.780Z,1.20
2022-11-24T13:25:36.159Z,2.60
2022-11-24T13:28:06.741Z,1.53
2022-11-24T13:30:33.466Z,1.48
2022-11-24T13:33:03.890Z,1.48
2022-11-24T13:35:31.048Z,1.42
2022-11-24T13:37:57.946Z,1.08
2022-11-24T13:40:26.525Z,1.03
2022-11-24T13:42:57.661Z,1.48
2022-11-24T13:45:40.318Z,1.60
2022-11-24T13:48:14.035Z,1.42
2022-11-24T13:50:50.184Z,2.25
2022-11-24T13:53:45.437Z,1.50
2022-11-24T13:56:12.185Z,1.45
2022-11-24T13:58:50.492Z,1.45
2022-11-24T14:01:26.439Z,0.85
2022-11-24T14:04:32.089Z,1.60
2022-11-24T14:07:14.710Z,1.20
2022-11-24T14:09:41.679Z,1.20
2022-11-24T14:12:26.368Z,1.67
2022-11-24T14:14:57.416Z,1.20
2022-11-24T14:17:28.626Z,1.15
2022-11-24T14:19:57.832Z,1.83
2022-11-24T14:22:32.925Z,1.80
2022-11-24T14:25:01.761Z,1.00
2022-11-24T14:27:39.241Z,1.35
2022-11-24T14:30:20.862Z,1.02
2022-11-24T14:32:59.615Z,0.97
2022-11-24T14:35:26.747Z,1.63
2022-11-24T14:37:53.800Z,1.20
2022-11-24T14:40:55.228Z,1.10
2022-11-24T14:43:32.942Z,1.17
2022-11-24T14:46:02.318Z,1.40
2022-11-24T14:48:38.422Z,1.05
2022-11-24T14:51:13.722Z,1.42
2022-11-24T14:53:45.827Z,0.70
2022-11-24T14:56:34.694Z,0.70
2022-11-24T14:59:02.629Z,0.97
2022-11-24T15:01:33.050Z,0.77
2022-11-24T15:04:46.712Z,0.85
2022-11-24T15:07:13.895Z,1.60
2022-11-24T15:09:43.683Z,0.90
2022-11-24T15:12:23.479Z,1.00
2022-11-24T15:14:52.225Z,1.20
2022-11-24T15:17:23.814Z,1.40
2022-11-24T15:20:09.872Z,0.90
2022-11-24T15:22:40.305Z,0.93
2022-11-24T15:25:30.116Z,0.87
2022-11-24T15:27:57.639Z,0.68
2022-11-24T15:30:25.013Z,1.02
2022-11-24T15:32:57.334Z,0.52
2022-11-24T15:35:26.698Z,1.23
2022-11-24T15:37:53.754Z,1.20
2022-11-24T15:40:20.763Z,1.05
2022-11-24T15:42:55.621Z,0.88
2022-11-24T15:45:24.892Z,1.65
2022-11-24T15:47:51.720Z,0.95
2022-11-24T15:50:19.849Z,1.27
2022-11-24T15:52:47.730Z,1.02
2022-11-24T15:55:20.274Z,1.13
2022-11-24T15:57:48.226Z,1.38
2022-11-24T16:00:20.360Z,1.23
2022-11-24T16:02:47.356Z,0.90
2022-11-24T16:05:15.131Z,1.77
2022-11-24T16:07:42.488Z,1.48
2022-11-24T16:10:25.308Z,1.10
2022-11-24T16:12:52.219Z,1.17
2022-11-24T16:15:18.962Z,1.00
2022-11-24T16:17:45.767Z,0.90
2022-11-24T16:20:12.865Z,0.93
2022-11-24T16:22:39.911Z,1.58
2022-11-24T16:25:08.494Z,1.20
2022-11-24T16:27:35.353Z,0.90
2022-11-24T16:30:02.416Z,1.42
2022-11-24T16:32:29.310Z,1.95
2022-11-24T16:34:56.194Z,0.82
2022-11-24T16:37:23.356Z,1.15
2022-11-24T16:39:50.785Z,1.10
2022-11-24T16:42:17.808Z,0.80
2022-11-24T16:44:44.778Z,1.83
2022-11-24T16:47:13.207Z,1.10
2022-11-24T16:49:40.183Z,1.30
2022-11-24T16:52:08.660Z,1.83
2022-11-24T16:54:37.094Z,1.30
2022-11-24T16:57:04.205Z,1.02
2022-11-24T16:59:31.162Z,1.00
2022-11-24T17:01:57.971Z,1.58
2022-11-24T17:04:25.972Z,1.17
2022-11-24T17:06:52.768Z,1.40
2022-11-24T17:09:19.640Z,1.42
2022-11-24T17:11:46.691Z,1.80
2022-11-24T17:14:14.829Z,1.55
2022-11-24T17:16:41.852Z,1.47
2022-11-24T17:19:08.917Z,1.70
2022-11-24T17:21:35.859Z,2.40
2022-11-24T17:24:06.927Z,2.00
2022-11-24T17:26:34.081Z,1.60
2022-11-24T17:29:01.129Z,1.60
2022-11-24T17:31:32.293Z,1.48
2022-11-24T17:34:00.622Z,1.65
2022-11-24T17:36:29.606Z,1.90
2022-11-24T17:38:56.906Z,1.38
2022-11-24T17:41:23.833Z,1.33
2022-11-24T17:43:51.859Z,1.35
2022-11-24T17:46:19.405Z,2.20
2022-11-24T17:48:47.152Z,1.58
2022-11-24T17:51:16.528Z,1.42
2022-11-24T17:53:46.146Z,1.53
2022-11-24T17:56:18.803Z,1.42
2022-11-24T17:58:45.723Z,1.55
2022-11-24T18:01:13.703Z,1.77
2022-11-24T18:03:41.421Z,1.60
2022-11-24T18:06:13.585Z,1.77
2022-11-24T18:08:42.800Z,2.08
2022-11-24T18:11:24.673Z,1.90
2022-11-24T18:14:00.773Z,1.98
2022-11-24T18:16:30.558Z,1.42
2022-11-24T18:19:11.024Z,1.93
2022-11-24T18:21:42.387Z,1.65
2022-11-24T18:24:10.694Z,1.63
2022-11-24T18:26:38.391Z,1.52
2022-11-24T18:29:05.447Z,2.00
2022-11-24T18:31:34.474Z,1.40
2022-11-24T18:34:02.720Z,1.40
2022-11-24T18:36:30.800Z,1.63
2022-11-24T18:39:02.401Z,1.45
2022-11-24T18:41:29.319Z,2.20
2022-11-24T18:43:56.158Z,1.50
2022-11-24T18:46:23.192Z,1.40
2022-11-24T18:48:52.198Z,1.55
2022-11-24T18:51:19.588Z,1.13
2022-11-24T18:53:50.715Z,1.52
2022-11-24T18:56:18.133Z,1.50
2022-11-24T18:58:45.548Z,1.35
2022-11-24T19:01:17.956Z,1.05
2022-11-24T19:03:50.475Z,1.77
2022-11-24T19:06:20.223Z,1.35
2022-11-24T19:08:49.093Z,1.30
2022-11-24T19:11:18.158Z,1.30
2022-11-24T19:13:45.318Z,2.22
2022-11-24T19:16:13.087Z,1.50
2022-11-24T19:18:40.163Z,1.25
2022-11-24T19:21:07.359Z,2.10
2022-11-24T19:23:34.917Z,2.10
2022-11-24T19:26:02.933Z,1.77
2022-11-24T19:28:30.153Z,1.58
2022-11-24T19:31:01.627Z,1.33
2022-11-24T19:33:28.496Z,1.53
2022-11-24T19:36:14.945Z,1.48
2022-11-24T19:38:43.418Z,1.20
2022-11-24T19:41:12.721Z,1.52
2022-11-24T19:43:40.835Z,1.48
2022-11-24T19:46:10.222Z,1.57
2022-11-24T19:48:50.270Z,1.60
2022-11-24T19:51:30.633Z,1.00
2022-11-24T19:53:58.388Z,1.33
2022-11-24T19:56:27.707Z,1.23
2022-11-24T19:58:56.116Z,1.70
2022-11-24T20:01:27.262Z,1.67
2022-11-24T20:04:01.534Z,1.35
2022-11-24T20:06:31.330Z,1.90
2022-11-24T20:09:00.671Z,1.25
2022-11-24T20:11:28.835Z,1.10
2022-11-24T20:13:56.789Z,1.58
2022-11-24T20:16:30.050Z,1.65
2022-11-24T20:19:02.333Z,1.60
2022-11-24T20:21:33.025Z,1.45
2022-11-24T20:24:06.206Z,1.37
2022-11-24T20:26:35.902Z,1.48
2022-11-24T20:29:04.143Z,1.25
2022-11-24T20:31:34.149Z,1.50
2022-11-24T20:34:02.775Z,1.60
2022-11-24T20:36:31.335Z,1.40
2022-11-24T20:39:00.861Z,1.30
2022-11-24T20:41:30.519Z,1.38
2022-11-24T20:44:00.968Z,1.55
2022-11-24T20:46:30.798Z,1.50
2022-11-24T20:48:58.319Z,1.30
2022-11-24T20:51:31.704Z,1.50
2022-11-24T20:54:01.437Z,1.58
2022-11-24T20:56:31.168Z,1.33
2022-11-24T20:58:59.363Z,1.70
2022-11-24T21:01:29.787Z,1.30
2022-11-24T21:03:59.024Z,1.70
2022-11-24T21:06:28.404Z,1.17
2022-11-24T21:09:01.965Z,1.40
2022-11-24T21:11:31.368Z,1.65
2022-11-24T21:13:58.781Z,1.40
2022-11-24T21:16:28.798Z,1.83
2022-11-24T21:19:01.522Z,2.08
2022-11-24T21:21:34.187Z,1.60
2022-11-24T21:24:02.845Z,1.35
2022-11-24T21:26:30.082Z,1.50
2022-11-24T21:28:57.554Z,1.65
2022-11-24T21:31:24.563Z,1.23
2022-11-24T21:33:53.465Z,1.60
2022-11-24T21:36:25.369Z,1.63
2022-11-24T21:38:57.214Z,1.67
2022-11-24T21:41:26.729Z,0.95
2022-11-24T21:43:56.093Z,1.23
2022-11-24T21:46:23.747Z,1.48
2022-11-24T21:48:51.132Z,1.30
2022-11-24T21:51:20.417Z,2.30
2022-11-24T21:53:47.795Z,1.95
2022-11-24T21:56:17.599Z,1.40
2022-11-24T21:58:46.035Z,1.50
2022-11-24T22:01:13.788Z,1.35
2022-11-24T22:03:40.958Z,1.40
2022-11-24T22:06:08.513Z,2.45
2022-11-24T22:08:35.950Z,1.35
2022-11-24T22:11:08.641Z,1.23
2022-11-24T22:13:35.909Z,1.35
2022-11-24T22:16:07.835Z,1.50
2022-11-24T22:18:36.925Z,1.00
2022-11-24T22:21:05.003Z,1.75
2022-11-24T22:23:33.174Z,1.50
2022-11-24T22:26:17.481Z,1.75
2022-11-24T22:28:45.430Z,1.60
2022-11-24T22:31:19.448Z,2.10
2022-11-24T22:33:48.583Z,1.75
2022-11-24T22:36:17.183Z,1.73
2022-11-24T22:38:44.429Z,1.92
2022-11-24T22:41:14.419Z,1.80
2022-11-24T22:43:42.868Z,1.40
2022-11-24T22:46:21.501Z,1.80
2022-11-24T22:48:49.936Z,1.23
2022-11-24T22:51:19.425Z,1.92
2022-11-24T22:53:55.317Z,1.40
2022-11-24T22:56:23.086Z,2.05
2022-11-24T22:58:50.875Z,1.33
2022-11-24T23:01:23.366Z,1.67
2022-11-24T23:03:53.833Z,1.15
2022-11-24T23:06:23.274Z,1.43
2022-11-24T23:08:51.023Z,1.45
2022-11-24T23:11:36.403Z,1.40
2022-11-24T23:14:06.813Z,1.00
2022-11-24T23:16:33.707Z,1.10
2022-11-24T23:19:00.658Z,1.80
2022-11-24T23:21:32.152Z,1.58
2022-11-24T23:24:01.300Z,1.23
2022-11-24T23:26:30.469Z,1.52
2022-11-24T23:28:57.388Z,1.58
2022-11-24T23:31:29.770Z,1.70
2022-11-24T23:34:02.180Z,1.55
2022-11-24T23:36:30.157Z,1.38
2022-11-24T23:39:01.745Z,1.20
2022-11-24T23:41:30.889Z,1.38
2022-11-24T23:43:58.139Z,1.10
2022-11-24T23:46:26.871Z,1.95
2022-11-24T23:48:54.955Z,1.27
2022-11-24T23:51:30.167Z,1.65
2022-11-24T23:53:58.350Z,1.35
2022-11-24T23:56:30.803Z,1.10
